sensor_id;sensor_type;location;lat;lon;timestamp;temperature;humidity
8338;DHT22;4206;48.634;9.516;2023-04-06T00:01:02;-1.00;99.90
8338;DHT22;4206;48.634;9.516;2023-04-06T00:03:29;-1.20;99.90
8338;DHT22;4206;48.634;9.516;2023-04-06T00:05:57;-1.20;99.90
8338;DHT22;4206;48.634;9.516;2023-04-06T00:08:25;-1.10;99.90
8338;DHT22;4206;48.634;9.516;2023-04-06T00:10:53;-1.00;99.90
8338;DHT22;4206;48.634;9.516;2023-04-06T00:13:21;-1.00;99.90
8338;DHT22;4206;48.634;9.516;2023-04-06T00:15:48;-1.00;99.90
8338;DHT22;4206;48.634;9.516;2023-04-06T00:18:15;-1.10;99.90
8338;DHT22;4206;48.634;9.516;2023-04-06T00:20:42;-1.20;99.90
8338;DHT22;4206;48.634;9.516;2023-04-06T00:23:09;-1.20;99.90
8338;DHT22;4206;48.634;9.516;2023-04-06T00:25:36;-1.20;99.90
8338;DHT22;4206;48.634;9.516;2023-04-06T00:28:04;-1.30;99.90
8338;DHT22;4206;48.634;9.516;2023-04-06T00:30:31;-1.30;99.90
8338;DHT22;4206;48.634;9.516;2023-04-06T00:32:58;-1.30;99.90
8338;DHT22;4206;48.634;9.516;2023-04-06T00:35:26;-1.30;99.90
8338;DHT22;4206;48.634;9.516;2023-04-06T00:37:53;-1.30;99.90
8338;DHT22;4206;48.634;9.516;2023-04-06T00:40:20;-1.30;99.90
8338;DHT22;4206;48.634;9.516;2023-04-06T00:42:48;-1.30;99.90
8338;DHT22;4206;48.634;9.516;2023-04-06T00:45:16;-1.40;99.90
8338;DHT22;4206;48.634;9.516;2023-04-06T00:47:43;-1.30;99.90
8338;DHT22;4206;48.634;9.516;2023-04-06T00:50:10;-1.40;99.90
8338;DHT22;4206;48.634;9.516;2023-04-06T00:52:37;-1.40;99.90
8338;DHT22;4206;48.634;9.516;2023-04-06T00:55:05;-1.40;99.90
8338;DHT22;4206;48.634;9.516;2023-04-06T00:57:32;-1.50;99.90
8338;DHT22;4206;48.634;9.516;2023-04-06T01:00:00;-1.60;99.90
8338;DHT22;4206;48.634;9.516;2023-04-06T01:02:27;-1.60;99.90
8338;DHT22;4206;48.634;9.516;2023-04-06T01:04:54;-1.60;99.90
8338;DHT22;4206;48.634;9.516;2023-04-06T01:07:22;-1.60;99.90
8338;DHT22;4206;48.634;9.516;2023-04-06T01:09:49;-1.60;99.90
8338;DHT22;4206;48.634;9.516;2023-04-06T01:12:16;-1.70;99.90
8338;DHT22;4206;48.634;9.516;2023-04-06T01:14:43;-1.70;99.90
8338;DHT22;4206;48.634;9.516;2023-04-06T01:17:11;-1.70;99.90
8338;DHT22;4206;48.634;9.516;2023-04-06T01:19:38;-1.80;99.90
8338;DHT22;4206;48.634;9.516;2023-04-06T01:22:07;-1.70;99.90
8338;DHT22;4206;48.634;9.516;2023-04-06T01:24:34;-1.80;99.90
8338;DHT22;4206;48.634;9.516;2023-04-06T01:27:01;-1.90;99.90
8338;DHT22;4206;48.634;9.516;2023-04-06T01:29:28;-1.90;99.90
8338;DHT22;4206;48.634;9.516;2023-04-06T01:31:56;-1.90;99.90
8338;DHT22;4206;48.634;9.516;2023-04-06T01:34:23;-1.90;99.90
8338;DHT22;4206;48.634;9.516;2023-04-06T01:36:50;-2.00;99.90
8338;DHT22;4206;48.634;9.516;2023-04-06T01:39:17;-2.00;99.90
8338;DHT22;4206;48.634;9.516;2023-04-06T01:41:45;-2.00;99.90
8338;DHT22;4206;48.634;9.516;2023-04-06T01:44:16;-1.90;99.90
8338;DHT22;4206;48.634;9.516;2023-04-06T01:46:45;-2.00;99.90
8338;DHT22;4206;48.634;9.516;2023-04-06T01:49:13;-2.00;99.90
8338;DHT22;4206;48.634;9.516;2023-04-06T01:51:40;-2.00;99.90
8338;DHT22;4206;48.634;9.516;2023-04-06T01:54:08;-2.00;99.90
8338;DHT22;4206;48.634;9.516;2023-04-06T01:56:35;-2.00;99.90
8338;DHT22;4206;48.634;9.516;2023-04-06T01:59:02;-2.00;99.90
8338;DHT22;4206;48.634;9.516;2023-04-06T02:01:29;-2.00;99.90
8338;DHT22;4206;48.634;9.516;2023-04-06T02:03:56;-2.00;99.90
8338;DHT22;4206;48.634;9.516;2023-04-06T02:06:23;-2.10;99.90
8338;DHT22;4206;48.634;9.516;2023-04-06T02:08:50;-2.20;99.90
8338;DHT22;4206;48.634;9.516;2023-04-06T02:11:17;-2.10;99.90
8338;DHT22;4206;48.634;9.516;2023-04-06T02:13:44;-2.10;99.90
8338;DHT22;4206;48.634;9.516;2023-04-06T02:16:11;-2.10;99.90
8338;DHT22;4206;48.634;9.516;2023-04-06T02:18:38;-2.20;99.90
8338;DHT22;4206;48.634;9.516;2023-04-06T02:21:05;-2.30;99.90
8338;DHT22;4206;48.634;9.516;2023-04-06T02:23:32;-2.30;99.90
8338;DHT22;4206;48.634;9.516;2023-04-06T02:25:59;-2.40;99.90
8338;DHT22;4206;48.634;9.516;2023-04-06T02:28:26;-2.40;99.90
8338;DHT22;4206;48.634;9.516;2023-04-06T02:30:54;-2.40;99.90
8338;DHT22;4206;48.634;9.516;2023-04-06T02:33:21;-2.40;99.90
8338;DHT22;4206;48.634;9.516;2023-04-06T02:35:48;-2.40;99.90
8338;DHT22;4206;48.634;9.516;2023-04-06T02:38:15;-2.40;99.90
8338;DHT22;4206;48.634;9.516;2023-04-06T02:40:42;-2.50;99.90
8338;DHT22;4206;48.634;9.516;2023-04-06T02:43:09;-2.50;99.90
8338;DHT22;4206;48.634;9.516;2023-04-06T02:45:36;-2.60;99.90
8338;DHT22;4206;48.634;9.516;2023-04-06T02:48:03;-2.60;99.90
8338;DHT22;4206;48.634;9.516;2023-04-06T02:50:30;-2.60;99.90
8338;DHT22;4206;48.634;9.516;2023-04-06T02:52:57;-2.70;99.90
8338;DHT22;4206;48.634;9.516;2023-04-06T02:55:24;-2.70;99.90
8338;DHT22;4206;48.634;9.516;2023-04-06T02:57:51;-2.70;99.90
8338;DHT22;4206;48.634;9.516;2023-04-06T04:00:53;-3.20;99.90
8338;DHT22;4206;48.634;9.516;2023-04-06T04:03:20;-3.30;99.90
8338;DHT22;4206;48.634;9.516;2023-04-06T04:05:50;-3.30;99.90
8338;DHT22;4206;48.634;9.516;2023-04-06T04:08:17;-3.40;99.90
8338;DHT22;4206;48.634;9.516;2023-04-06T04:10:44;-3.30;99.90
8338;DHT22;4206;48.634;9.516;2023-04-06T04:13:11;-3.30;99.90
8338;DHT22;4206;48.634;9.516;2023-04-06T04:15:38;-3.30;99.90
8338;DHT22;4206;48.634;9.516;2023-04-06T04:18:05;-3.30;99.90
8338;DHT22;4206;48.634;9.516;2023-04-06T04:20:32;-3.30;99.90
8338;DHT22;4206;48.634;9.516;2023-04-06T04:23:08;-3.40;99.90
8338;DHT22;4206;48.634;9.516;2023-04-06T04:25:37;-3.40;99.90
8338;DHT22;4206;48.634;9.516;2023-04-06T04:28:04;-3.40;99.90
8338;DHT22;4206;48.634;9.516;2023-04-06T04:30:31;-3.40;99.90
8338;DHT22;4206;48.634;9.516;2023-04-06T04:32:58;-3.40;99.90
8338;DHT22;4206;48.634;9.516;2023-04-06T04:35:26;-3.50;99.90
8338;DHT22;4206;48.634;9.516;2023-04-06T04:37:53;-3.50;99.90
8338;DHT22;4206;48.634;9.516;2023-04-06T04:40:20;-3.50;99.90
8338;DHT22;4206;48.634;9.516;2023-04-06T04:42:46;-3.50;99.90
8338;DHT22;4206;48.634;9.516;2023-04-06T04:45:13;-3.50;99.90
8338;DHT22;4206;48.634;9.516;2023-04-06T04:47:41;-3.50;99.90
8338;DHT22;4206;48.634;9.516;2023-04-06T04:50:08;-3.60;99.90
8338;DHT22;4206;48.634;9.516;2023-04-06T04:52:35;-3.60;99.90
8338;DHT22;4206;48.634;9.516;2023-04-06T04:55:02;-3.60;99.90
8338;DHT22;4206;48.634;9.516;2023-04-06T04:57:29;-3.50;99.90
8338;DHT22;4206;48.634;9.516;2023-04-06T04:59:56;-3.60;99.90
8338;DHT22;4206;48.634;9.516;2023-04-06T05:02:23;-3.60;99.90
8338;DHT22;4206;48.634;9.516;2023-04-06T05:04:51;-3.50;99.90
8338;DHT22;4206;48.634;9.516;2023-04-06T05:07:18;-3.60;99.90
8338;DHT22;4206;48.634;9.516;2023-04-06T05:09:45;-3.50;99.90
8338;DHT22;4206;48.634;9.516;2023-04-06T05:12:12;-3.50;99.90
8338;DHT22;4206;48.634;9.516;2023-04-06T05:14:39;-3.50;99.90
8338;DHT22;4206;48.634;9.516;2023-04-06T05:17:06;-3.40;99.90
8338;DHT22;4206;48.634;9.516;2023-04-06T05:19:33;-3.40;99.90
8338;DHT22;4206;48.634;9.516;2023-04-06T05:22:00;-3.30;99.90
8338;DHT22;4206;48.634;9.516;2023-04-06T05:24:27;-3.30;99.90
8338;DHT22;4206;48.634;9.516;2023-04-06T05:26:54;-3.10;99.90
8338;DHT22;4206;48.634;9.516;2023-04-06T05:29:21;-3.10;99.90
8338;DHT22;4206;48.634;9.516;2023-04-06T05:31:48;-2.90;99.90
8338;DHT22;4206;48.634;9.516;2023-04-06T05:34:15;-2.80;99.90
8338;DHT22;4206;48.634;9.516;2023-04-06T05:36:42;-2.70;99.90
8338;DHT22;4206;48.634;9.516;2023-04-06T05:39:09;-2.50;99.90
8338;DHT22;4206;48.634;9.516;2023-04-06T05:41:36;-2.40;99.90
8338;DHT22;4206;48.634;9.516;2023-04-06T05:44:03;-2.20;99.90
8338;DHT22;4206;48.634;9.516;2023-04-06T05:46:31;-2.10;99.90
8338;DHT22;4206;48.634;9.516;2023-04-06T05:48:58;-1.90;99.90
8338;DHT22;4206;48.634;9.516;2023-04-06T05:51:25;-1.80;99.90
8338;DHT22;4206;48.634;9.516;2023-04-06T05:53:53;-1.60;99.90
8338;DHT22;4206;48.634;9.516;2023-04-06T05:56:20;-1.40;99.90
8338;DHT22;4206;48.634;9.516;2023-04-06T05:58:47;-1.40;99.90
8338;DHT22;4206;48.634;9.516;2023-04-06T06:01:14;-1.20;99.90
8338;DHT22;4206;48.634;9.516;2023-04-06T06:03:41;-1.10;99.90
8338;DHT22;4206;48.634;9.516;2023-04-06T06:06:08;-0.90;99.90
8338;DHT22;4206;48.634;9.516;2023-04-06T06:08:35;-0.70;99.90
8338;DHT22;4206;48.634;9.516;2023-04-06T06:11:02;-0.60;99.90
8338;DHT22;4206;48.634;9.516;2023-04-06T06:13:29;-0.50;99.90
8338;DHT22;4206;48.634;9.516;2023-04-06T06:15:57;-0.20;99.90
8338;DHT22;4206;48.634;9.516;2023-04-06T06:18:24;-0.20;99.90
8338;DHT22;4206;48.634;9.516;2023-04-06T06:20:50;0.10;99.90
8338;DHT22;4206;48.634;9.516;2023-04-06T06:23:18;0.40;99.90
8338;DHT22;4206;48.634;9.516;2023-04-06T06:25:45;0.70;99.90
8338;DHT22;4206;48.634;9.516;2023-04-06T06:28:13;1.00;99.90
8338;DHT22;4206;48.634;9.516;2023-04-06T06:30:40;1.20;99.90
8338;DHT22;4206;48.634;9.516;2023-04-06T06:33:07;1.40;99.90
8338;DHT22;4206;48.634;9.516;2023-04-06T06:35:33;1.50;99.90
8338;DHT22;4206;48.634;9.516;2023-04-06T06:38:01;1.60;99.90
8338;DHT22;4206;48.634;9.516;2023-04-06T06:40:27;1.80;99.90
8338;DHT22;4206;48.634;9.516;2023-04-06T06:42:55;2.00;99.90
8338;DHT22;4206;48.634;9.516;2023-04-06T06:45:22;2.40;99.90
8338;DHT22;4206;48.634;9.516;2023-04-06T06:47:48;2.60;99.90
8338;DHT22;4206;48.634;9.516;2023-04-06T06:50:18;2.80;99.90
8338;DHT22;4206;48.634;9.516;2023-04-06T06:52:45;3.10;99.90
8338;DHT22;4206;48.634;9.516;2023-04-06T06:55:12;3.30;99.90
8338;DHT22;4206;48.634;9.516;2023-04-06T06:57:39;3.50;99.90
8338;DHT22;4206;48.634;9.516;2023-04-06T07:00:09;3.70;99.90
8338;DHT22;4206;48.634;9.516;2023-04-06T07:02:39;4.00;99.90
8338;DHT22;4206;48.634;9.516;2023-04-06T07:05:06;4.20;99.90
8338;DHT22;4206;48.634;9.516;2023-04-06T07:07:52;4.70;99.90
8338;DHT22;4206;48.634;9.516;2023-04-06T07:10:19;4.90;99.90
8338;DHT22;4206;48.634;9.516;2023-04-06T07:12:46;5.20;99.90
8338;DHT22;4206;48.634;9.516;2023-04-06T07:15:13;5.50;99.90
8338;DHT22;4206;48.634;9.516;2023-04-06T07:17:41;5.50;99.90
8338;DHT22;4206;48.634;9.516;2023-04-06T07:20:08;5.50;99.90
8338;DHT22;4206;48.634;9.516;2023-04-06T07:22:35;5.70;99.90
8338;DHT22;4206;48.634;9.516;2023-04-06T07:25:02;5.80;99.90
8338;DHT22;4206;48.634;9.516;2023-04-06T07:27:29;5.90;99.90
8338;DHT22;4206;48.634;9.516;2023-04-06T07:29:57;6.00;99.90
8338;DHT22;4206;48.634;9.516;2023-04-06T07:32:25;6.20;99.90
8338;DHT22;4206;48.634;9.516;2023-04-06T07:34:52;6.60;99.90
8338;DHT22;4206;48.634;9.516;2023-04-06T07:37:19;7.00;99.90
8338;DHT22;4206;48.634;9.516;2023-04-06T07:39:46;7.30;99.90
8338;DHT22;4206;48.634;9.516;2023-04-06T07:42:13;7.40;99.90
8338;DHT22;4206;48.634;9.516;2023-04-06T07:44:40;7.60;99.90
8338;DHT22;4206;48.634;9.516;2023-04-06T07:47:07;8.00;99.90
8338;DHT22;4206;48.634;9.516;2023-04-06T07:49:34;8.30;99.90
8338;DHT22;4206;48.634;9.516;2023-04-06T07:52:01;8.80;99.90
8338;DHT22;4206;48.634;9.516;2023-04-06T07:54:29;8.90;99.90
8338;DHT22;4206;48.634;9.516;2023-04-06T07:56:56;9.00;99.90
8338;DHT22;4206;48.634;9.516;2023-04-06T07:59:23;9.50;99.90
8338;DHT22;4206;48.634;9.516;2023-04-06T08:01:50;9.90;99.90
8338;DHT22;4206;48.634;9.516;2023-04-06T08:04:17;10.20;99.80
8338;DHT22;4206;48.634;9.516;2023-04-06T08:06:44;10.80;98.50
8338;DHT22;4206;48.634;9.516;2023-04-06T08:09:11;11.30;98.10
8338;DHT22;4206;48.634;9.516;2023-04-06T08:11:38;11.50;97.00
8338;DHT22;4206;48.634;9.516;2023-04-06T08:14:05;12.00;94.80
8338;DHT22;4206;48.634;9.516;2023-04-06T08:16:32;12.50;93.00
8338;DHT22;4206;48.634;9.516;2023-04-06T08:18:59;13.70;91.90
8338;DHT22;4206;48.634;9.516;2023-04-06T08:21:26;14.40;89.20
8338;DHT22;4206;48.634;9.516;2023-04-06T08:23:52;15.00;87.80
8338;DHT22;4206;48.634;9.516;2023-04-06T08:26:20;15.40;81.80
8338;DHT22;4206;48.634;9.516;2023-04-06T08:28:47;16.00;80.30
8338;DHT22;4206;48.634;9.516;2023-04-06T08:31:14;16.20;80.40
8338;DHT22;4206;48.634;9.516;2023-04-06T08:33:41;16.80;77.20
8338;DHT22;4206;48.634;9.516;2023-04-06T08:36:11;16.80;75.80
8338;DHT22;4206;48.634;9.516;2023-04-06T08:38:39;17.20;77.60
8338;DHT22;4206;48.634;9.516;2023-04-06T08:41:07;17.40;76.00
8338;DHT22;4206;48.634;9.516;2023-04-06T08:43:43;17.50;75.60
8338;DHT22;4206;48.634;9.516;2023-04-06T08:46:11;19.30;76.40
8338;DHT22;4206;48.634;9.516;2023-04-06T08:48:39;20.40;67.10
8338;DHT22;4206;48.634;9.516;2023-04-06T08:51:08;20.30;65.80
8338;DHT22;4206;48.634;9.516;2023-04-06T08:53:35;19.90;67.10
8338;DHT22;4206;48.634;9.516;2023-04-06T08:56:03;19.70;66.30
8338;DHT22;4206;48.634;9.516;2023-04-06T08:58:35;18.20;65.00
8338;DHT22;4206;48.634;9.516;2023-04-06T09:01:08;18.90;63.50
8338;DHT22;4206;48.634;9.516;2023-04-06T09:03:38;19.20;63.20
8338;DHT22;4206;48.634;9.516;2023-04-06T09:06:07;19.60;60.40
8338;DHT22;4206;48.634;9.516;2023-04-06T09:08:35;19.40;61.20
8338;DHT22;4206;48.634;9.516;2023-04-06T09:11:03;19.50;61.70
8338;DHT22;4206;48.634;9.516;2023-04-06T09:13:30;18.60;63.80
8338;DHT22;4206;48.634;9.516;2023-04-06T09:16:03;19.80;63.10
8338;DHT22;4206;48.634;9.516;2023-04-06T09:18:31;19.50;62.80
8338;DHT22;4206;48.634;9.516;2023-04-06T09:21:01;18.60;64.30
8338;DHT22;4206;48.634;9.516;2023-04-06T09:23:29;18.20;64.40
8338;DHT22;4206;48.634;9.516;2023-04-06T09:26:16;19.50;64.90
8338;DHT22;4206;48.634;9.516;2023-04-06T09:28:53;18.90;66.80
8338;DHT22;4206;48.634;9.516;2023-04-06T09:31:23;19.40;65.60
8338;DHT22;4206;48.634;9.516;2023-04-06T09:33:51;20.10;64.60
8338;DHT22;4206;48.634;9.516;2023-04-06T09:36:19;19.60;65.50
8338;DHT22;4206;48.634;9.516;2023-04-06T09:39:02;19.40;66.40
8338;DHT22;4206;48.634;9.516;2023-04-06T09:41:31;19.90;64.50
8338;DHT22;4206;48.634;9.516;2023-04-06T09:44:04;21.20;61.70
8338;DHT22;4206;48.634;9.516;2023-04-06T09:46:35;20.90;63.90
8338;DHT22;4206;48.634;9.516;2023-04-06T09:49:22;21.80;63.70
8338;DHT22;4206;48.634;9.516;2023-04-06T09:51:57;24.30;59.30
8338;DHT22;4206;48.634;9.516;2023-04-06T09:54:28;24.70;54.90
8338;DHT22;4206;48.634;9.516;2023-04-06T09:57:15;24.40;54.90
8338;DHT22;4206;48.634;9.516;2023-04-06T10:00:03;24.90;55.80
8338;DHT22;4206;48.634;9.516;2023-04-06T10:07:40;27.60;49.20
8338;DHT22;4206;48.634;9.516;2023-04-06T10:10:25;26.60;47.90
8338;DHT22;4206;48.634;9.516;2023-04-06T10:12:52;26.10;49.60
8338;DHT22;4206;48.634;9.516;2023-04-06T10:15:20;27.10;48.80
8338;DHT22;4206;48.634;9.516;2023-04-06T10:17:48;28.00;48.00
8338;DHT22;4206;48.634;9.516;2023-04-06T10:25:32;26.90;44.00
8338;DHT22;4206;48.634;9.516;2023-04-06T10:28:05;25.60;47.00
8338;DHT22;4206;48.634;9.516;2023-04-06T10:30:33;23.40;47.60
8338;DHT22;4206;48.634;9.516;2023-04-06T10:33:01;23.80;47.30
8338;DHT22;4206;48.634;9.516;2023-04-06T10:35:41;24.20;47.80
8338;DHT22;4206;48.634;9.516;2023-04-06T10:38:08;23.30;47.70
8338;DHT22;4206;48.634;9.516;2023-04-06T10:40:38;24.60;47.20
8338;DHT22;4206;48.634;9.516;2023-04-06T10:43:08;25.00;45.90
8338;DHT22;4206;48.634;9.516;2023-04-06T10:45:36;23.70;47.60
8338;DHT22;4206;48.634;9.516;2023-04-06T10:48:19;23.90;47.50
8338;DHT22;4206;48.634;9.516;2023-04-06T10:50:48;23.20;47.10
8338;DHT22;4206;48.634;9.516;2023-04-06T10:53:25;23.70;47.40
8338;DHT22;4206;48.634;9.516;2023-04-06T10:55:54;24.20;48.20
8338;DHT22;4206;48.634;9.516;2023-04-06T10:58:26;26.90;45.10
8338;DHT22;4206;48.634;9.516;2023-04-06T11:00:54;26.90;43.50
8338;DHT22;4206;48.634;9.516;2023-04-06T11:03:22;25.90;45.60
8338;DHT22;4206;48.634;9.516;2023-04-06T11:05:50;26.80;44.30
8338;DHT22;4206;48.634;9.516;2023-04-06T11:08:33;27.70;42.50
8338;DHT22;4206;48.634;9.516;2023-04-06T11:11:12;27.10;42.80
8338;DHT22;4206;48.634;9.516;2023-04-06T11:13:52;26.10;43.30
8338;DHT22;4206;48.634;9.516;2023-04-06T11:16:24;26.20;43.70
8338;DHT22;4206;48.634;9.516;2023-04-06T11:18:56;25.70;44.30
8338;DHT22;4206;48.634;9.516;2023-04-06T11:21:40;27.00;42.50
8338;DHT22;4206;48.634;9.516;2023-04-06T11:24:14;28.10;41.10
8338;DHT22;4206;48.634;9.516;2023-04-06T11:26:48;28.00;41.50
8338;DHT22;4206;48.634;9.516;2023-04-06T11:29:17;25.70;42.60
8338;DHT22;4206;48.634;9.516;2023-04-06T11:31:47;24.00;44.00
8338;DHT22;4206;48.634;9.516;2023-04-06T11:34:23;25.40;41.80
8338;DHT22;4206;48.634;9.516;2023-04-06T11:36:59;25.70;42.10
8338;DHT22;4206;48.634;9.516;2023-04-06T11:39:28;25.00;43.80
8338;DHT22;4206;48.634;9.516;2023-04-06T11:41:59;24.20;43.50
8338;DHT22;4206;48.634;9.516;2023-04-06T11:44:36;23.70;44.70
8338;DHT22;4206;48.634;9.516;2023-04-06T11:47:08;24.20;44.60
8338;DHT22;4206;48.634;9.516;2023-04-06T11:49:38;24.70;44.90
8338;DHT22;4206;48.634;9.516;2023-04-06T11:52:22;25.40;44.90
8338;DHT22;4206;48.634;9.516;2023-04-06T11:54:51;26.50;43.60
8338;DHT22;4206;48.634;9.516;2023-04-06T11:57:19;26.00;43.80
8338;DHT22;4206;48.634;9.516;2023-04-06T11:59:47;25.40;43.70
8338;DHT22;4206;48.634;9.516;2023-04-06T12:02:14;25.90;43.40
8338;DHT22;4206;48.634;9.516;2023-04-06T12:04:41;25.40;43.40
8338;DHT22;4206;48.634;9.516;2023-04-06T12:12:04;26.50;62.70
8338;DHT22;4206;48.634;9.516;2023-04-06T12:14:31;24.00;64.70
8338;DHT22;4206;48.634;9.516;2023-04-06T12:16:58;23.60;61.90
8338;DHT22;4206;48.634;9.516;2023-04-06T12:19:25;23.60;43.00
8338;DHT22;4206;48.634;9.516;2023-04-06T12:21:57;23.40;55.20
8338;DHT22;4206;48.634;9.516;2023-04-06T12:24:24;22.70;44.30
8338;DHT22;4206;48.634;9.516;2023-04-06T12:26:51;23.20;42.50
8338;DHT22;4206;48.634;9.516;2023-04-06T12:29:28;24.30;43.00
8338;DHT22;4206;48.634;9.516;2023-04-06T12:31:55;22.90;44.50
8338;DHT22;4206;48.634;9.516;2023-04-06T12:34:22;22.60;44.60
8338;DHT22;4206;48.634;9.516;2023-04-06T12:36:49;22.00;44.90
8338;DHT22;4206;48.634;9.516;2023-04-06T12:39:18;22.40;44.80
8338;DHT22;4206;48.634;9.516;2023-04-06T12:41:47;22.30;44.40
8338;DHT22;4206;48.634;9.516;2023-04-06T12:44:14;23.90;42.90
8338;DHT22;4206;48.634;9.516;2023-04-06T12:46:41;23.90;40.50
8338;DHT22;4206;48.634;9.516;2023-04-06T12:49:10;24.00;40.30
8338;DHT22;4206;48.634;9.516;2023-04-06T12:51:37;23.40;42.40
8338;DHT22;4206;48.634;9.516;2023-04-06T12:54:04;23.00;42.80
8338;DHT22;4206;48.634;9.516;2023-04-06T12:56:32;22.70;40.60
8338;DHT22;4206;48.634;9.516;2023-04-06T12:58:59;22.50;41.50
8338;DHT22;4206;48.634;9.516;2023-04-06T13:01:27;23.30;40.40
8338;DHT22;4206;48.634;9.516;2023-04-06T13:03:57;23.30;40.90
8338;DHT22;4206;48.634;9.516;2023-04-06T13:06:24;21.80;42.60
8338;DHT22;4206;48.634;9.516;2023-04-06T13:08:55;21.30;44.30
8338;DHT22;4206;48.634;9.516;2023-04-06T13:11:22;21.40;42.80
8338;DHT22;4206;48.634;9.516;2023-04-06T13:13:52;22.60;42.40
8338;DHT22;4206;48.634;9.516;2023-04-06T13:16:19;23.60;41.00
8338;DHT22;4206;48.634;9.516;2023-04-06T13:18:47;25.40;40.50
8338;DHT22;4206;48.634;9.516;2023-04-06T13:23:43;23.50;41.20
8338;DHT22;4206;48.634;9.516;2023-04-06T13:26:11;23.60;41.40
8338;DHT22;4206;48.634;9.516;2023-04-06T13:28:40;23.60;43.30
8338;DHT22;4206;48.634;9.516;2023-04-06T13:31:08;23.20;43.30
8338;DHT22;4206;48.634;9.516;2023-04-06T13:33:36;22.50;41.60
8338;DHT22;4206;48.634;9.516;2023-04-06T13:36:06;23.80;40.50
8338;DHT22;4206;48.634;9.516;2023-04-06T13:38:34;23.70;39.00
8338;DHT22;4206;48.634;9.516;2023-04-06T13:41:01;24.30;39.90
8338;DHT22;4206;48.634;9.516;2023-04-06T13:43:28;23.70;41.80
8338;DHT22;4206;48.634;9.516;2023-04-06T13:45:55;23.70;41.80
8338;DHT22;4206;48.634;9.516;2023-04-06T13:48:25;23.10;41.70
8338;DHT22;4206;48.634;9.516;2023-04-06T13:50:53;22.40;42.80
8338;DHT22;4206;48.634;9.516;2023-04-06T13:55:55;22.20;41.30
8338;DHT22;4206;48.634;9.516;2023-04-06T13:58:22;21.20;44.50
8338;DHT22;4206;48.634;9.516;2023-04-06T14:00:49;21.20;43.80
8338;DHT22;4206;48.634;9.516;2023-04-06T14:03:18;19.80;43.80
8338;DHT22;4206;48.634;9.516;2023-04-06T14:05:45;19.60;44.70
8338;DHT22;4206;48.634;9.516;2023-04-06T14:08:12;18.50;46.20
8338;DHT22;4206;48.634;9.516;2023-04-06T14:10:40;19.30;44.80
8338;DHT22;4206;48.634;9.516;2023-04-06T14:13:09;18.50;44.60
8338;DHT22;4206;48.634;9.516;2023-04-06T14:15:36;18.10;44.70
8338;DHT22;4206;48.634;9.516;2023-04-06T14:18:03;18.20;45.70
8338;DHT22;4206;48.634;9.516;2023-04-06T14:20:32;17.80;44.90
8338;DHT22;4206;48.634;9.516;2023-04-06T14:23:00;17.90;43.40
8338;DHT22;4206;48.634;9.516;2023-04-06T14:25:28;18.30;42.90
8338;DHT22;4206;48.634;9.516;2023-04-06T14:27:55;18.50;42.50
8338;DHT22;4206;48.634;9.516;2023-04-06T14:30:22;17.70;45.50
8338;DHT22;4206;48.634;9.516;2023-04-06T14:32:50;17.50;44.10
8338;DHT22;4206;48.634;9.516;2023-04-06T14:35:17;17.80;44.70
8338;DHT22;4206;48.634;9.516;2023-04-06T14:37:44;17.50;43.20
8338;DHT22;4206;48.634;9.516;2023-04-06T14:40:12;17.30;46.00
8338;DHT22;4206;48.634;9.516;2023-04-06T14:42:39;16.80;45.40
8338;DHT22;4206;48.634;9.516;2023-04-06T14:45:06;16.60;46.00
8338;DHT22;4206;48.634;9.516;2023-04-06T14:47:33;16.40;46.70
8338;DHT22;4206;48.634;9.516;2023-04-06T14:50:01;16.30;46.20
8338;DHT22;4206;48.634;9.516;2023-04-06T14:52:28;16.40;44.30
8338;DHT22;4206;48.634;9.516;2023-04-06T14:54:58;16.70;45.30
8338;DHT22;4206;48.634;9.516;2023-04-06T14:57:24;16.60;45.00
8338;DHT22;4206;48.634;9.516;2023-04-06T14:59:53;16.60;45.70
8338;DHT22;4206;48.634;9.516;2023-04-06T15:02:21;16.70;45.60
8338;DHT22;4206;48.634;9.516;2023-04-06T15:04:48;16.40;45.60
8338;DHT22;4206;48.634;9.516;2023-04-06T15:07:17;16.80;46.80
8338;DHT22;4206;48.634;9.516;2023-04-06T15:09:45;17.40;45.10
8338;DHT22;4206;48.634;9.516;2023-04-06T15:12:11;17.30;42.20
8338;DHT22;4206;48.634;9.516;2023-04-06T15:14:38;17.70;42.00
8338;DHT22;4206;48.634;9.516;2023-04-06T15:17:05;17.60;45.20
8338;DHT22;4206;48.634;9.516;2023-04-06T15:19:39;17.20;41.60
8338;DHT22;4206;48.634;9.516;2023-04-06T15:22:11;16.70;42.10
8338;DHT22;4206;48.634;9.516;2023-04-06T15:24:45;16.50;42.30
8338;DHT22;4206;48.634;9.516;2023-04-06T15:27:23;16.20;42.00
8338;DHT22;4206;48.634;9.516;2023-04-06T15:29:52;15.70;42.70
8338;DHT22;4206;48.634;9.516;2023-04-06T15:32:21;15.50;41.70
8338;DHT22;4206;48.634;9.516;2023-04-06T15:34:48;15.50;40.20
8338;DHT22;4206;48.634;9.516;2023-04-06T15:37:15;15.20;42.00
8338;DHT22;4206;48.634;9.516;2023-04-06T15:39:42;15.20;41.30
8338;DHT22;4206;48.634;9.516;2023-04-06T15:42:09;15.20;40.20
8338;DHT22;4206;48.634;9.516;2023-04-06T15:44:36;14.80;42.60
8338;DHT22;4206;48.634;9.516;2023-04-06T15:47:03;14.90;42.80
8338;DHT22;4206;48.634;9.516;2023-04-06T15:49:30;14.70;41.80
8338;DHT22;4206;48.634;9.516;2023-04-06T15:51:57;14.70;42.60
8338;DHT22;4206;48.634;9.516;2023-04-06T15:54:24;14.60;43.80
8338;DHT22;4206;48.634;9.516;2023-04-06T15:56:51;14.70;41.00
8338;DHT22;4206;48.634;9.516;2023-04-06T15:59:17;14.60;42.40
8338;DHT22;4206;48.634;9.516;2023-04-06T16:02:09;14.40;42.80
8338;DHT22;4206;48.634;9.516;2023-04-06T16:04:36;14.50;43.20
8338;DHT22;4206;48.634;9.516;2023-04-06T16:07:03;14.40;43.10
8338;DHT22;4206;48.634;9.516;2023-04-06T16:09:31;14.20;44.00
8338;DHT22;4206;48.634;9.516;2023-04-06T16:11:57;14.10;44.90
8338;DHT22;4206;48.634;9.516;2023-04-06T16:14:24;14.00;43.50
8338;DHT22;4206;48.634;9.516;2023-04-06T16:16:51;14.00;44.20
8338;DHT22;4206;48.634;9.516;2023-04-06T16:19:18;14.00;44.60
8338;DHT22;4206;48.634;9.516;2023-04-06T16:21:45;13.90;43.40
8338;DHT22;4206;48.634;9.516;2023-04-06T16:24:13;14.00;43.80
8338;DHT22;4206;48.634;9.516;2023-04-06T16:26:40;14.10;44.50
8338;DHT22;4206;48.634;9.516;2023-04-06T16:29:07;14.00;43.80
8338;DHT22;4206;48.634;9.516;2023-04-06T16:31:35;13.80;44.60
8338;DHT22;4206;48.634;9.516;2023-04-06T16:34:03;13.70;44.90
8338;DHT22;4206;48.634;9.516;2023-04-06T16:36:30;13.60;45.10
8338;DHT22;4206;48.634;9.516;2023-04-06T16:39:00;13.30;47.90
8338;DHT22;4206;48.634;9.516;2023-04-06T16:41:27;13.40;48.10
8338;DHT22;4206;48.634;9.516;2023-04-06T16:43:54;13.40;48.40
8338;DHT22;4206;48.634;9.516;2023-04-06T16:46:31;13.30;48.50
8338;DHT22;4206;48.634;9.516;2023-04-06T16:48:59;13.20;48.40
8338;DHT22;4206;48.634;9.516;2023-04-06T16:51:26;13.20;47.50
8338;DHT22;4206;48.634;9.516;2023-04-06T16:53:54;13.10;48.90
8338;DHT22;4206;48.634;9.516;2023-04-06T16:56:21;13.10;50.00
8338;DHT22;4206;48.634;9.516;2023-04-06T16:58:48;13.10;48.80
8338;DHT22;4206;48.634;9.516;2023-04-06T17:01:19;13.00;52.10
8338;DHT22;4206;48.634;9.516;2023-04-06T17:03:46;13.00;51.10
8338;DHT22;4206;48.634;9.516;2023-04-06T17:06:14;12.80;53.20
8338;DHT22;4206;48.634;9.516;2023-04-06T17:08:42;12.70;54.30
8338;DHT22;4206;48.634;9.516;2023-04-06T17:11:10;12.60;52.10
8338;DHT22;4206;48.634;9.516;2023-04-06T17:13:40;12.50;51.90
8338;DHT22;4206;48.634;9.516;2023-04-06T17:16:08;12.40;50.90
8338;DHT22;4206;48.634;9.516;2023-04-06T17:18:36;12.40;52.80
8338;DHT22;4206;48.634;9.516;2023-04-06T17:21:06;12.20;51.10
8338;DHT22;4206;48.634;9.516;2023-04-06T17:23:33;12.20;52.20
8338;DHT22;4206;48.634;9.516;2023-04-06T17:26:04;12.10;52.40
8338;DHT22;4206;48.634;9.516;2023-04-06T17:28:33;12.00;52.70
8338;DHT22;4206;48.634;9.516;2023-04-06T17:31:00;11.90;54.10